Terminal Aerodrome Forecast
Issued by NWS

Home | Current Version | Previous Version | Text Only | Print | Product List | Glossary On
Versions: 1 2 3 4 5 6 7 8 9 10 11 12 13 14 15 16 17 18 19 20 21 22 23 24 25 26 27 28 29 30 31 32 33 34 35 36 37 38 39 40 41 42 43 44
000
FTUS42 KGSP 212225 AAC
TAFHKY
TAF AMD
KHKY 212225Z 2122/2218 03004KT P6SM VCSH SCT005 BKN035
      TEMPO 2123/2202 4SM BR OVC005
     FM220200 05005KT 2SM -RA BR OVC004
     FM220900 VRB02KT 1SM -RA BR OVC003
     FM221700 15006KT 4SM SHRA OVC003=

USA.gov is the U.S. government's official web portal to all federal, state and local government web resources and services.